sensor_id;sensor_type;location;lat;lon;timestamp;P1;durP1;ratioP1;P2;durP2;ratioP2
58015;SDS011;43809;52.110;20.964;2023-07-20T00:01:29;1.83;;;1.07;;
58015;SDS011;43809;52.110;20.964;2023-07-20T00:03:29;1.17;;;1.00;;
58015;SDS011;43809;52.110;20.964;2023-07-20T00:10:47;1.30;;;0.80;;
58015;SDS011;43809;52.110;20.964;2023-07-20T00:14:47;1.10;;;1.00;;
58015;SDS011;43809;52.110;20.964;2023-07-20T00:16:49;1.00;;;0.80;;
58015;SDS011;43809;52.110;20.964;2023-07-20T00:18:55;1.42;;;0.90;;
58015;SDS011;43809;52.110;20.964;2023-07-20T00:23:33;1.25;;;1.08;;
58015;SDS011;43809;52.110;20.964;2023-07-20T00:25:33;1.88;;;0.90;;
58015;SDS011;43809;52.110;20.964;2023-07-20T00:27:33;1.77;;;1.00;;
58015;SDS011;43809;52.110;20.964;2023-07-20T00:29:33;0.90;;;0.80;;
58015;SDS011;43809;52.110;20.964;2023-07-20T00:31:33;1.63;;;1.17;;
58015;SDS011;43809;52.110;20.964;2023-07-20T00:33:36;2.33;;;1.38;;
58015;SDS011;43809;52.110;20.964;2023-07-20T00:35:37;2.00;;;1.20;;
58015;SDS011;43809;52.110;20.964;2023-07-20T00:37:38;1.38;;;1.05;;
58015;SDS011;43809;52.110;20.964;2023-07-20T00:39:38;1.20;;;1.02;;
58015;SDS011;43809;52.110;20.964;2023-07-20T00:41:38;1.70;;;0.90;;
58015;SDS011;43809;52.110;20.964;2023-07-20T00:43:39;1.30;;;1.10;;
58015;SDS011;43809;52.110;20.964;2023-07-20T00:45:39;0.70;;;0.70;;
58015;SDS011;43809;52.110;20.964;2023-07-20T00:52:32;0.95;;;0.90;;
58015;SDS011;43809;52.110;20.964;2023-07-20T00:54:33;0.80;;;0.80;;
58015;SDS011;43809;52.110;20.964;2023-07-20T00:56:33;1.52;;;1.10;;
58015;SDS011;43809;52.110;20.964;2023-07-20T00:58:34;1.25;;;0.80;;
58015;SDS011;43809;52.110;20.964;2023-07-20T01:00:34;0.90;;;0.80;;
58015;SDS011;43809;52.110;20.964;2023-07-20T01:02:34;0.80;;;0.80;;
58015;SDS011;43809;52.110;20.964;2023-07-20T01:04:35;0.70;;;0.60;;
58015;SDS011;43809;52.110;20.964;2023-07-20T01:06:37;1.40;;;0.77;;
58015;SDS011;43809;52.110;20.964;2023-07-20T01:08:40;0.70;;;0.70;;
58015;SDS011;43809;52.110;20.964;2023-07-20T01:10:44;0.57;;;0.52;;
58015;SDS011;43809;52.110;20.964;2023-07-20T01:15:23;1.40;;;0.77;;
58015;SDS011;43809;52.110;20.964;2023-07-20T01:17:24;1.00;;;0.90;;
58015;SDS011;43809;52.110;20.964;2023-07-20T01:19:24;1.33;;;0.70;;
58015;SDS011;43809;52.110;20.964;2023-07-20T01:21:26;0.70;;;0.70;;
58015;SDS011;43809;52.110;20.964;2023-07-20T01:31:32;0.65;;;0.52;;
58015;SDS011;43809;52.110;20.964;2023-07-20T01:33:06;0.63;;;0.55;;
58015;SDS011;43809;52.110;20.964;2023-07-20T01:35:07;0.60;;;0.55;;
58015;SDS011;43809;52.110;20.964;2023-07-20T01:37:08;0.65;;;0.65;;
58015;SDS011;43809;52.110;20.964;2023-07-20T01:39:09;1.40;;;0.70;;
58015;SDS011;43809;52.110;20.964;2023-07-20T01:41:10;0.70;;;0.70;;
58015;SDS011;43809;52.110;20.964;2023-07-20T01:43:11;1.15;;;0.88;;
58015;SDS011;43809;52.110;20.964;2023-07-20T01:45:12;0.98;;;0.73;;
58015;SDS011;43809;52.110;20.964;2023-07-20T01:49:37;0.60;;;0.60;;
58015;SDS011;43809;52.110;20.964;2023-07-20T01:51:37;1.63;;;1.23;;
58015;SDS011;43809;52.110;20.964;2023-07-20T01:53:40;2.38;;;1.27;;
58015;SDS011;43809;52.110;20.964;2023-07-20T01:55:40;1.63;;;1.20;;
58015;SDS011;43809;52.110;20.964;2023-07-20T01:57:49;1.40;;;1.20;;
58015;SDS011;43809;52.110;20.964;2023-07-20T01:59:50;2.47;;;1.33;;
58015;SDS011;43809;52.110;20.964;2023-07-20T02:01:50;8.37;;;1.90;;
58015;SDS011;43809;52.110;20.964;2023-07-20T02:06:20;9.57;;;1.67;;
58015;SDS011;43809;52.110;20.964;2023-07-20T02:10:52;2.33;;;0.95;;
58015;SDS011;43809;52.110;20.964;2023-07-20T02:12:53;7.23;;;1.30;;
58015;SDS011;43809;52.110;20.964;2023-07-20T02:17:59;10.45;;;2.83;;
58015;SDS011;43809;52.110;20.964;2023-07-20T02:20:00;6.18;;;2.13;;
58015;SDS011;43809;52.110;20.964;2023-07-20T02:22:00;4.03;;;1.90;;
58015;SDS011;43809;52.110;20.964;2023-07-20T02:24:00;3.17;;;1.40;;
58015;SDS011;43809;52.110;20.964;2023-07-20T02:26:00;2.33;;;1.10;;
58015;SDS011;43809;52.110;20.964;2023-07-20T02:28:01;1.33;;;0.95;;
58015;SDS011;43809;52.110;20.964;2023-07-20T02:40:31;3.05;;;1.83;;
58015;SDS011;43809;52.110;20.964;2023-07-20T02:42:31;2.90;;;1.90;;
58015;SDS011;43809;52.110;20.964;2023-07-20T02:44:31;1.73;;;1.38;;
58015;SDS011;43809;52.110;20.964;2023-07-20T02:46:32;2.97;;;1.45;;
58015;SDS011;43809;52.110;20.964;2023-07-20T02:48:32;2.35;;;1.40;;
58015;SDS011;43809;52.110;20.964;2023-07-20T02:50:32;1.53;;;1.20;;
58015;SDS011;43809;52.110;20.964;2023-07-20T02:52:32;1.30;;;1.03;;
58015;SDS011;43809;52.110;20.964;2023-07-20T02:54:33;0.90;;;0.90;;
58015;SDS011;43809;52.110;20.964;2023-07-20T02:56:33;1.60;;;1.23;;
58015;SDS011;43809;52.110;20.964;2023-07-20T03:03:36;3.65;;;1.65;;
58015;SDS011;43809;52.110;20.964;2023-07-20T03:05:40;2.35;;;1.80;;
58015;SDS011;43809;52.110;20.964;2023-07-20T03:07:40;2.38;;;1.70;;
58015;SDS011;43809;52.110;20.964;2023-07-20T03:12:21;1.58;;;1.20;;
58015;SDS011;43809;52.110;20.964;2023-07-20T03:16:23;2.20;;;1.17;;
58015;SDS011;43809;52.110;20.964;2023-07-20T03:18:25;3.40;;;1.13;;
58015;SDS011;43809;52.110;20.964;2023-07-20T03:20:25;1.30;;;1.20;;
58015;SDS011;43809;52.110;20.964;2023-07-20T03:25:03;2.22;;;1.45;;
58015;SDS011;43809;52.110;20.964;2023-07-20T03:27:04;1.50;;;1.10;;
58015;SDS011;43809;52.110;20.964;2023-07-20T03:29:04;1.13;;;0.88;;
58015;SDS011;43809;52.110;20.964;2023-07-20T03:31:22;1.20;;;1.10;;
58015;SDS011;43809;52.110;20.964;2023-07-20T03:33:24;3.15;;;1.15;;
58015;SDS011;43809;52.110;20.964;2023-07-20T03:35:25;2.20;;;1.23;;
58015;SDS011;43809;52.110;20.964;2023-07-20T03:42:07;3.08;;;1.67;;
58015;SDS011;43809;52.110;20.964;2023-07-20T03:44:07;3.90;;;1.55;;
58015;SDS011;43809;52.110;20.964;2023-07-20T03:46:08;2.33;;;1.50;;
58015;SDS011;43809;52.110;20.964;2023-07-20T03:48:08;5.60;;;1.95;;
58015;SDS011;43809;52.110;20.964;2023-07-20T03:50:08;2.90;;;1.73;;
58015;SDS011;43809;52.110;20.964;2023-07-20T03:52:09;4.15;;;2.00;;
58015;SDS011;43809;52.110;20.964;2023-07-20T03:54:10;2.73;;;1.80;;
58015;SDS011;43809;52.110;20.964;2023-07-20T03:56:10;8.98;;;3.15;;
58015;SDS011;43809;52.110;20.964;2023-07-20T03:58:10;7.90;;;3.27;;
58015;SDS011;43809;52.110;20.964;2023-07-20T04:05:26;4.05;;;3.00;;
58015;SDS011;43809;52.110;20.964;2023-07-20T04:07:27;3.92;;;2.50;;
58015;SDS011;43809;52.110;20.964;2023-07-20T04:09:27;2.60;;;2.00;;
58015;SDS011;43809;52.110;20.964;2023-07-20T04:11:27;2.28;;;1.75;;
58015;SDS011;43809;52.110;20.964;2023-07-20T04:13:29;1.98;;;1.60;;
58015;SDS011;43809;52.110;20.964;2023-07-20T04:15:33;3.83;;;2.22;;
58015;SDS011;43809;52.110;20.964;2023-07-20T04:17:48;3.83;;;2.85;;
58015;SDS011;43809;52.110;20.964;2023-07-20T04:19:51;3.58;;;2.28;;
58015;SDS011;43809;52.110;20.964;2023-07-20T04:21:52;4.50;;;2.55;;
58015;SDS011;43809;52.110;20.964;2023-07-20T04:23:53;3.33;;;2.40;;
58015;SDS011;43809;52.110;20.964;2023-07-20T04:25:53;3.10;;;2.75;;
58015;SDS011;43809;52.110;20.964;2023-07-20T04:27:53;2.95;;;2.55;;
58015;SDS011;43809;52.110;20.964;2023-07-20T04:29:53;4.17;;;3.07;;
58015;SDS011;43809;52.110;20.964;2023-07-20T04:31:54;3.70;;;2.63;;
58015;SDS011;43809;52.110;20.964;2023-07-20T04:33:54;2.70;;;2.20;;
58015;SDS011;43809;52.110;20.964;2023-07-20T04:35:54;2.43;;;2.07;;
58015;SDS011;43809;52.110;20.964;2023-07-20T04:37:54;2.23;;;1.90;;
58015;SDS011;43809;52.110;20.964;2023-07-20T04:39:56;2.33;;;1.70;;
58015;SDS011;43809;52.110;20.964;2023-07-20T04:41:57;2.28;;;1.80;;
58015;SDS011;43809;52.110;20.964;2023-07-20T04:46:25;1.90;;;1.70;;
58015;SDS011;43809;52.110;20.964;2023-07-20T04:48:34;2.72;;;1.92;;
58015;SDS011;43809;52.110;20.964;2023-07-20T04:50:37;2.65;;;1.85;;
58015;SDS011;43809;52.110;20.964;2023-07-20T04:52:38;2.80;;;1.95;;
58015;SDS011;43809;52.110;20.964;2023-07-20T04:54:41;3.03;;;2.10;;
58015;SDS011;43809;52.110;20.964;2023-07-20T04:56:53;2.95;;;2.50;;
58015;SDS011;43809;52.110;20.964;2023-07-20T04:58:57;3.53;;;3.13;;
58015;SDS011;43809;52.110;20.964;2023-07-20T05:01:16;4.25;;;2.60;;
58015;SDS011;43809;52.110;20.964;2023-07-20T05:03:16;4.88;;;3.65;;
58015;SDS011;43809;52.110;20.964;2023-07-20T05:05:17;3.97;;;2.95;;
58015;SDS011;43809;52.110;20.964;2023-07-20T05:07:17;3.78;;;2.85;;
58015;SDS011;43809;52.110;20.964;2023-07-20T05:09:17;4.13;;;2.90;;
58015;SDS011;43809;52.110;20.964;2023-07-20T05:11:17;5.23;;;3.00;;
58015;SDS011;43809;52.110;20.964;2023-07-20T05:13:18;3.28;;;2.70;;
58015;SDS011;43809;52.110;20.964;2023-07-20T05:15:18;3.13;;;2.58;;
58015;SDS011;43809;52.110;20.964;2023-07-20T05:17:18;4.50;;;2.63;;
58015;SDS011;43809;52.110;20.964;2023-07-20T05:19:18;2.50;;;2.20;;
58015;SDS011;43809;52.110;20.964;2023-07-20T05:21:18;4.57;;;2.77;;
58015;SDS011;43809;52.110;20.964;2023-07-20T05:25:56;4.38;;;3.38;;
58015;SDS011;43809;52.110;20.964;2023-07-20T05:30:00;3.42;;;2.67;;
58015;SDS011;43809;52.110;20.964;2023-07-20T05:32:00;4.35;;;2.70;;
58015;SDS011;43809;52.110;20.964;2023-07-20T05:34:01;3.47;;;2.47;;
58015;SDS011;43809;52.110;20.964;2023-07-20T05:36:01;3.83;;;2.87;;
58015;SDS011;43809;52.110;20.964;2023-07-20T05:38:01;2.83;;;2.20;;
58015;SDS011;43809;52.110;20.964;2023-07-20T05:40:01;4.15;;;2.65;;
58015;SDS011;43809;52.110;20.964;2023-07-20T05:42:02;3.35;;;2.65;;
58015;SDS011;43809;52.110;20.964;2023-07-20T05:44:02;3.67;;;2.33;;
58015;SDS011;43809;52.110;20.964;2023-07-20T05:46:02;3.20;;;2.50;;
58015;SDS011;43809;52.110;20.964;2023-07-20T05:53:32;2.75;;;2.28;;
58015;SDS011;43809;52.110;20.964;2023-07-20T05:55:33;4.50;;;2.13;;
58015;SDS011;43809;52.110;20.964;2023-07-20T05:57:33;2.40;;;2.07;;
58015;SDS011;43809;52.110;20.964;2023-07-20T05:59:33;2.90;;;1.88;;
58015;SDS011;43809;52.110;20.964;2023-07-20T06:01:33;1.88;;;1.65;;
58015;SDS011;43809;52.110;20.964;2023-07-20T06:03:34;2.10;;;1.70;;
58015;SDS011;43809;52.110;20.964;2023-07-20T06:05:34;2.33;;;1.70;;
58015;SDS011;43809;52.110;20.964;2023-07-20T06:07:36;2.10;;;1.70;;
58015;SDS011;43809;52.110;20.964;2023-07-20T06:09:36;2.30;;;1.70;;
58015;SDS011;43809;52.110;20.964;2023-07-20T06:11:36;3.80;;;3.00;;
58015;SDS011;43809;52.110;20.964;2023-07-20T06:13:36;3.47;;;2.90;;
58015;SDS011;43809;52.110;20.964;2023-07-20T06:15:37;4.60;;;3.00;;
58015;SDS011;43809;52.110;20.964;2023-07-20T06:17:39;2.95;;;2.53;;
58015;SDS011;43809;52.110;20.964;2023-07-20T06:19:39;3.23;;;2.37;;
58015;SDS011;43809;52.110;20.964;2023-07-20T06:21:39;3.80;;;2.60;;
58015;SDS011;43809;52.110;20.964;2023-07-20T06:23:40;2.90;;;2.38;;
58015;SDS011;43809;52.110;20.964;2023-07-20T06:25:40;2.38;;;1.80;;
58015;SDS011;43809;52.110;20.964;2023-07-20T06:27:41;3.22;;;2.35;;
58015;SDS011;43809;52.110;20.964;2023-07-20T06:29:41;3.70;;;2.20;;
58015;SDS011;43809;52.110;20.964;2023-07-20T06:31:41;2.67;;;1.83;;
58015;SDS011;43809;52.110;20.964;2023-07-20T06:33:42;2.60;;;2.10;;
58015;SDS011;43809;52.110;20.964;2023-07-20T06:35:42;2.13;;;1.80;;
58015;SDS011;43809;52.110;20.964;2023-07-20T06:37:51;2.20;;;1.77;;
58015;SDS011;43809;52.110;20.964;2023-07-20T06:39:51;2.05;;;1.83;;
58015;SDS011;43809;52.110;20.964;2023-07-20T06:41:51;3.47;;;2.23;;
58015;SDS011;43809;52.110;20.964;2023-07-20T06:43:51;2.92;;;2.50;;
58015;SDS011;43809;52.110;20.964;2023-07-20T06:45:52;3.03;;;2.17;;
58015;SDS011;43809;52.110;20.964;2023-07-20T06:47:53;4.70;;;2.78;;
58015;SDS011;43809;52.110;20.964;2023-07-20T06:49:53;3.97;;;2.43;;
58015;SDS011;43809;52.110;20.964;2023-07-20T06:51:54;3.50;;;2.67;;
58015;SDS011;43809;52.110;20.964;2023-07-20T06:53:54;3.28;;;2.70;;
58015;SDS011;43809;52.110;20.964;2023-07-20T06:55:54;4.33;;;2.77;;
58015;SDS011;43809;52.110;20.964;2023-07-20T06:59:57;2.75;;;2.33;;
58015;SDS011;43809;52.110;20.964;2023-07-20T07:01:57;2.77;;;2.10;;
58015;SDS011;43809;52.110;20.964;2023-07-20T07:03:57;4.60;;;2.83;;
58015;SDS011;43809;52.110;20.964;2023-07-20T07:05:57;4.65;;;3.03;;
58015;SDS011;43809;52.110;20.964;2023-07-20T07:07:57;4.07;;;3.00;;
58015;SDS011;43809;52.110;20.964;2023-07-20T07:10:01;4.93;;;3.20;;
58015;SDS011;43809;52.110;20.964;2023-07-20T07:12:03;3.50;;;2.80;;
58015;SDS011;43809;52.110;20.964;2023-07-20T07:14:04;3.67;;;2.78;;
58015;SDS011;43809;52.110;20.964;2023-07-20T07:16:04;4.15;;;3.30;;
58015;SDS011;43809;52.110;20.964;2023-07-20T07:18:04;4.00;;;2.92;;
58015;SDS011;43809;52.110;20.964;2023-07-20T07:20:05;3.93;;;2.93;;
58015;SDS011;43809;52.110;20.964;2023-07-20T07:22:05;3.03;;;2.53;;
58015;SDS011;43809;52.110;20.964;2023-07-20T07:24:06;6.50;;;3.90;;
58015;SDS011;43809;52.110;20.964;2023-07-20T07:26:07;4.57;;;3.10;;
58015;SDS011;43809;52.110;20.964;2023-07-20T07:28:08;3.65;;;2.88;;
58015;SDS011;43809;52.110;20.964;2023-07-20T07:30:17;3.78;;;2.97;;
58015;SDS011;43809;52.110;20.964;2023-07-20T07:32:17;4.07;;;3.00;;
58015;SDS011;43809;52.110;20.964;2023-07-20T07:34:18;3.38;;;2.55;;
58015;SDS011;43809;52.110;20.964;2023-07-20T07:36:18;3.67;;;2.42;;
58015;SDS011;43809;52.110;20.964;2023-07-20T07:38:19;3.63;;;3.28;;
58015;SDS011;43809;52.110;20.964;2023-07-20T07:40:19;5.20;;;3.30;;
58015;SDS011;43809;52.110;20.964;2023-07-20T07:44:39;3.75;;;2.97;;
58015;SDS011;43809;52.110;20.964;2023-07-20T07:46:39;6.00;;;2.85;;
58015;SDS011;43809;52.110;20.964;2023-07-20T07:48:39;6.00;;;3.13;;
58015;SDS011;43809;52.110;20.964;2023-07-20T07:50:39;8.47;;;3.80;;
58015;SDS011;43809;52.110;20.964;2023-07-20T07:52:43;4.80;;;2.75;;
58015;SDS011;43809;52.110;20.964;2023-07-20T07:54:43;4.18;;;2.78;;
58015;SDS011;43809;52.110;20.964;2023-07-20T07:56:43;4.10;;;3.20;;
58015;SDS011;43809;52.110;20.964;2023-07-20T07:58:44;4.07;;;3.30;;
58015;SDS011;43809;52.110;20.964;2023-07-20T08:03:20;5.25;;;4.35;;
58015;SDS011;43809;52.110;20.964;2023-07-20T08:05:21;6.07;;;4.43;;
58015;SDS011;43809;52.110;20.964;2023-07-20T08:07:22;5.38;;;3.33;;
58015;SDS011;43809;52.110;20.964;2023-07-20T08:09:22;5.63;;;4.07;;
58015;SDS011;43809;52.110;20.964;2023-07-20T08:11:23;5.65;;;4.15;;
58015;SDS011;43809;52.110;20.964;2023-07-20T08:13:23;5.53;;;3.95;;
58015;SDS011;43809;52.110;20.964;2023-07-20T08:15:23;4.80;;;3.50;;
58015;SDS011;43809;52.110;20.964;2023-07-20T08:17:41;7.10;;;4.87;;
58015;SDS011;43809;52.110;20.964;2023-07-20T08:19:42;6.28;;;3.85;;
58015;SDS011;43809;52.110;20.964;2023-07-20T08:21:42;6.57;;;4.20;;
58015;SDS011;43809;52.110;20.964;2023-07-20T08:26:10;6.30;;;4.47;;
58015;SDS011;43809;52.110;20.964;2023-07-20T08:28:11;8.07;;;4.93;;
58015;SDS011;43809;52.110;20.964;2023-07-20T08:30:25;5.57;;;4.57;;
58015;SDS011;43809;52.110;20.964;2023-07-20T08:32:26;6.43;;;5.15;;
58015;SDS011;43809;52.110;20.964;2023-07-20T08:34:26;5.45;;;4.25;;
58015;SDS011;43809;52.110;20.964;2023-07-20T08:36:26;5.82;;;4.57;;
58015;SDS011;43809;52.110;20.964;2023-07-20T08:38:27;6.32;;;4.35;;
58015;SDS011;43809;52.110;20.964;2023-07-20T08:40:27;8.25;;;4.88;;
58015;SDS011;43809;52.110;20.964;2023-07-20T08:42:27;6.07;;;4.20;;
58015;SDS011;43809;52.110;20.964;2023-07-20T08:44:28;7.47;;;4.13;;
58015;SDS011;43809;52.110;20.964;2023-07-20T08:46:29;4.50;;;3.53;;
58015;SDS011;43809;52.110;20.964;2023-07-20T08:48:30;3.75;;;3.20;;
58015;SDS011;43809;52.110;20.964;2023-07-20T08:50:31;4.68;;;3.90;;
58015;SDS011;43809;52.110;20.964;2023-07-20T08:52:32;6.43;;;4.30;;
58015;SDS011;43809;52.110;20.964;2023-07-20T08:54:34;3.83;;;3.38;;
58015;SDS011;43809;52.110;20.964;2023-07-20T08:56:34;5.47;;;3.80;;
58015;SDS011;43809;52.110;20.964;2023-07-20T08:58:35;5.50;;;4.10;;
58015;SDS011;43809;52.110;20.964;2023-07-20T09:00:42;4.85;;;3.42;;
58015;SDS011;43809;52.110;20.964;2023-07-20T09:02:42;4.78;;;3.70;;
58015;SDS011;43809;52.110;20.964;2023-07-20T09:04:45;4.25;;;2.90;;
58015;SDS011;43809;52.110;20.964;2023-07-20T09:06:45;3.80;;;3.38;;
58015;SDS011;43809;52.110;20.964;2023-07-20T09:08:45;4.82;;;3.30;;
58015;SDS011;43809;52.110;20.964;2023-07-20T09:10:46;3.72;;;2.70;;
58015;SDS011;43809;52.110;20.964;2023-07-20T09:12:46;3.65;;;2.78;;
58015;SDS011;43809;52.110;20.964;2023-07-20T09:14:47;2.80;;;2.20;;
58015;SDS011;43809;52.110;20.964;2023-07-20T09:16:52;3.10;;;2.80;;
58015;SDS011;43809;52.110;20.964;2023-07-20T09:18:52;3.95;;;2.90;;
58015;SDS011;43809;52.110;20.964;2023-07-20T09:20:52;3.47;;;2.90;;
58015;SDS011;43809;52.110;20.964;2023-07-20T09:25:28;4.85;;;3.25;;
58015;SDS011;43809;52.110;20.964;2023-07-20T09:27:35;3.03;;;2.70;;
58015;SDS011;43809;52.110;20.964;2023-07-20T09:29:48;3.53;;;2.83;;
58015;SDS011;43809;52.110;20.964;2023-07-20T09:32:03;3.88;;;2.60;;
58015;SDS011;43809;52.110;20.964;2023-07-20T09:34:04;2.92;;;2.47;;
58015;SDS011;43809;52.110;20.964;2023-07-20T09:36:04;3.72;;;2.63;;
58015;SDS011;43809;52.110;20.964;2023-07-20T09:38:05;3.72;;;2.40;;
58015;SDS011;43809;52.110;20.964;2023-07-20T09:42:40;4.65;;;2.42;;
58015;SDS011;43809;52.110;20.964;2023-07-20T09:44:43;2.80;;;2.30;;
58015;SDS011;43809;52.110;20.964;2023-07-20T09:46:47;2.42;;;2.03;;
58015;SDS011;43809;52.110;20.964;2023-07-20T09:48:54;2.78;;;1.90;;
58015;SDS011;43809;52.110;20.964;2023-07-20T09:50:55;2.90;;;2.00;;
58015;SDS011;43809;52.110;20.964;2023-07-20T09:53:05;3.43;;;2.00;;
58015;SDS011;43809;52.110;20.964;2023-07-20T09:55:10;2.33;;;2.13;;
58015;SDS011;43809;52.110;20.964;2023-07-20T09:57:11;2.33;;;2.13;;
58015;SDS011;43809;52.110;20.964;2023-07-20T09:59:13;2.47;;;1.60;;
58015;SDS011;43809;52.110;20.964;2023-07-20T10:01:16;1.77;;;1.60;;
58015;SDS011;43809;52.110;20.964;2023-07-20T10:03:19;1.67;;;1.58;;
58015;SDS011;43809;52.110;20.964;2023-07-20T10:05:19;2.07;;;1.70;;
58015;SDS011;43809;52.110;20.964;2023-07-20T10:07:21;2.78;;;1.80;;
58015;SDS011;43809;52.110;20.964;2023-07-20T10:09:23;2.08;;;1.70;;
58015;SDS011;43809;52.110;20.964;2023-07-20T10:11:24;2.78;;;1.85;;
58015;SDS011;43809;52.110;20.964;2023-07-20T10:13:39;1.98;;;1.67;;
58015;SDS011;43809;52.110;20.964;2023-07-20T10:15:42;3.25;;;1.80;;
58015;SDS011;43809;52.110;20.964;2023-07-20T10:19:44;1.92;;;1.73;;
58015;SDS011;43809;52.110;20.964;2023-07-20T10:21:47;2.25;;;1.80;;
58015;SDS011;43809;52.110;20.964;2023-07-20T10:23:48;3.35;;;2.00;;
58015;SDS011;43809;52.110;20.964;2023-07-20T10:25:49;1.95;;;1.75;;
58015;SDS011;43809;52.110;20.964;2023-07-20T10:27:50;1.80;;;1.50;;
58015;SDS011;43809;52.110;20.964;2023-07-20T10:29:57;1.90;;;1.73;;
58015;SDS011;43809;52.110;20.964;2023-07-20T10:31:59;1.77;;;1.20;;
58015;SDS011;43809;52.110;20.964;2023-07-20T10:33:59;1.50;;;1.30;;
58015;SDS011;43809;52.110;20.964;2023-07-20T10:36:00;2.65;;;1.50;;
58015;SDS011;43809;52.110;20.964;2023-07-20T10:40:39;1.63;;;1.48;;
58015;SDS011;43809;52.110;20.964;2023-07-20T10:42:40;1.50;;;1.40;;
58015;SDS011;43809;52.110;20.964;2023-07-20T10:44:40;2.53;;;1.60;;
58015;SDS011;43809;52.110;20.964;2023-07-20T10:46:43;1.95;;;1.33;;
58015;SDS011;43809;52.110;20.964;2023-07-20T10:51:20;2.65;;;1.63;;
58015;SDS011;43809;52.110;20.964;2023-07-20T10:53:20;1.90;;;1.40;;
58015;SDS011;43809;52.110;20.964;2023-07-20T10:55:20;1.60;;;1.50;;
58015;SDS011;43809;52.110;20.964;2023-07-20T10:57:23;1.70;;;1.58;;
58015;SDS011;43809;52.110;20.964;2023-07-20T11:01:27;2.10;;;1.80;;
58015;SDS011;43809;52.110;20.964;2023-07-20T11:03:27;1.92;;;1.13;;
58015;SDS011;43809;52.110;20.964;2023-07-20T11:05:35;1.15;;;1.05;;
58015;SDS011;43809;52.110;20.964;2023-07-20T11:07:44;1.60;;;1.50;;
58015;SDS011;43809;52.110;20.964;2023-07-20T11:09:45;1.60;;;1.50;;
58015;SDS011;43809;52.110;20.964;2023-07-20T11:11:46;1.85;;;1.35;;
58015;SDS011;43809;52.110;20.964;2023-07-20T11:18:14;1.55;;;1.45;;
58015;SDS011;43809;52.110;20.964;2023-07-20T11:20:16;1.75;;;1.65;;
58015;SDS011;43809;52.110;20.964;2023-07-20T11:22:32;1.80;;;1.60;;
58015;SDS011;43809;52.110;20.964;2023-07-20T11:24:32;2.42;;;1.52;;
58015;SDS011;43809;52.110;20.964;2023-07-20T11:26:43;2.70;;;1.70;;
58015;SDS011;43809;52.110;20.964;2023-07-20T11:28:44;3.10;;;1.90;;
58015;SDS011;43809;52.110;20.964;2023-07-20T11:30:52;3.03;;;2.10;;
58015;SDS011;43809;52.110;20.964;2023-07-20T11:32:53;2.42;;;1.73;;
58015;SDS011;43809;52.110;20.964;2023-07-20T11:35:04;2.07;;;1.60;;
58015;SDS011;43809;52.110;20.964;2023-07-20T11:37:05;2.20;;;1.70;;
58015;SDS011;43809;52.110;20.964;2023-07-20T11:39:05;3.05;;;1.90;;
58015;SDS011;43809;52.110;20.964;2023-07-20T11:41:06;2.95;;;1.70;;
58015;SDS011;43809;52.110;20.964;2023-07-20T11:43:07;2.50;;;1.85;;
58015;SDS011;43809;52.110;20.964;2023-07-20T11:45:08;2.15;;;1.70;;
58015;SDS011;43809;52.110;20.964;2023-07-20T11:47:10;2.33;;;1.90;;
58015;SDS011;43809;52.110;20.964;2023-07-20T11:49:11;2.27;;;1.80;;
58015;SDS011;43809;52.110;20.964;2023-07-20T11:53:27;4.03;;;1.73;;
58015;SDS011;43809;52.110;20.964;2023-07-20T11:55:28;2.67;;;1.85;;
58015;SDS011;43809;52.110;20.964;2023-07-20T11:57:28;1.95;;;1.50;;
58015;SDS011;43809;52.110;20.964;2023-07-20T11:59:29;4.45;;;1.40;;
58015;SDS011;43809;52.110;20.964;2023-07-20T12:01:29;3.83;;;1.63;;
58015;SDS011;43809;52.110;20.964;2023-07-20T12:03:31;2.85;;;1.73;;
58015;SDS011;43809;52.110;20.964;2023-07-20T12:05:31;1.77;;;1.27;;
58015;SDS011;43809;52.110;20.964;2023-07-20T12:07:32;1.95;;;1.50;;
58015;SDS011;43809;52.110;20.964;2023-07-20T12:09:34;2.20;;;1.60;;
58015;SDS011;43809;52.110;20.964;2023-07-20T12:11:35;1.50;;;1.33;;
58015;SDS011;43809;52.110;20.964;2023-07-20T12:13:41;2.55;;;1.83;;
58015;SDS011;43809;52.110;20.964;2023-07-20T12:15:42;1.85;;;1.45;;
58015;SDS011;43809;52.110;20.964;2023-07-20T12:17:44;6.67;;;2.10;;
58015;SDS011;43809;52.110;20.964;2023-07-20T12:19:44;1.77;;;1.20;;
58015;SDS011;43809;52.110;20.964;2023-07-20T12:21:44;3.58;;;1.70;;
58015;SDS011;43809;52.110;20.964;2023-07-20T12:23:45;2.45;;;1.60;;
58015;SDS011;43809;52.110;20.964;2023-07-20T12:25:46;4.40;;;1.83;;
58015;SDS011;43809;52.110;20.964;2023-07-20T12:30:25;1.88;;;1.60;;
58015;SDS011;43809;52.110;20.964;2023-07-20T12:32:26;2.38;;;1.60;;
58015;SDS011;43809;52.110;20.964;2023-07-20T12:34:26;3.85;;;1.90;;
58015;SDS011;43809;52.110;20.964;2023-07-20T12:36:26;1.98;;;1.63;;
58015;SDS011;43809;52.110;20.964;2023-07-20T12:38:27;1.47;;;1.37;;
58015;SDS011;43809;52.110;20.964;2023-07-20T12:40:27;1.77;;;1.50;;
58015;SDS011;43809;52.110;20.964;2023-07-20T12:42:28;1.67;;;1.30;;
58015;SDS011;43809;52.110;20.964;2023-07-20T12:44:28;2.07;;;1.30;;
58015;SDS011;43809;52.110;20.964;2023-07-20T12:46:28;2.88;;;1.55;;
58015;SDS011;43809;52.110;20.964;2023-07-20T12:48:29;3.42;;;1.80;;
58015;SDS011;43809;52.110;20.964;2023-07-20T12:50:29;4.35;;;1.90;;
58015;SDS011;43809;52.110;20.964;2023-07-20T12:52:30;3.72;;;1.77;;
58015;SDS011;43809;52.110;20.964;2023-07-20T12:54:31;1.92;;;1.38;;
58015;SDS011;43809;52.110;20.964;2023-07-20T12:56:31;1.83;;;1.33;;
58015;SDS011;43809;52.110;20.964;2023-07-20T12:58:31;1.90;;;1.50;;
58015;SDS011;43809;52.110;20.964;2023-07-20T13:00:32;3.80;;;1.70;;
58015;SDS011;43809;52.110;20.964;2023-07-20T13:02:32;4.55;;;2.13;;
58015;SDS011;43809;52.110;20.964;2023-07-20T13:04:32;4.68;;;1.73;;
58015;SDS011;43809;52.110;20.964;2023-07-20T13:06:33;5.10;;;2.30;;
58015;SDS011;43809;52.110;20.964;2023-07-20T13:08:34;3.17;;;1.60;;
58015;SDS011;43809;52.110;20.964;2023-07-20T13:10:34;2.50;;;1.57;;
58015;SDS011;43809;52.110;20.964;2023-07-20T13:12:35;3.55;;;1.38;;
58015;SDS011;43809;52.110;20.964;2023-07-20T13:14:35;2.83;;;1.40;;
58015;SDS011;43809;52.110;20.964;2023-07-20T13:16:35;1.25;;;1.15;;
58015;SDS011;43809;52.110;20.964;2023-07-20T13:18:35;3.97;;;1.30;;
58015;SDS011;43809;52.110;20.964;2023-07-20T13:20:36;4.27;;;1.50;;
58015;SDS011;43809;52.110;20.964;2023-07-20T13:25:02;1.92;;;1.60;;
58015;SDS011;43809;52.110;20.964;2023-07-20T13:27:05;1.60;;;1.40;;
58015;SDS011;43809;52.110;20.964;2023-07-20T13:29:06;7.45;;;2.38;;
58015;SDS011;43809;52.110;20.964;2023-07-20T13:31:06;4.30;;;1.58;;
58015;SDS011;43809;52.110;20.964;2023-07-20T13:35:08;4.50;;;1.83;;
58015;SDS011;43809;52.110;20.964;2023-07-20T13:37:09;3.05;;;1.63;;
58015;SDS011;43809;52.110;20.964;2023-07-20T13:39:09;1.90;;;1.58;;
58015;SDS011;43809;52.110;20.964;2023-07-20T13:41:09;2.40;;;1.80;;
58015;SDS011;43809;52.110;20.964;2023-07-20T13:43:09;8.17;;;2.30;;
58015;SDS011;43809;52.110;20.964;2023-07-20T13:45:10;2.85;;;1.30;;
58015;SDS011;43809;52.110;20.964;2023-07-20T13:49:39;4.28;;;1.58;;
58015;SDS011;43809;52.110;20.964;2023-07-20T13:51:40;1.93;;;1.40;;
58015;SDS011;43809;52.110;20.964;2023-07-20T13:53:41;4.07;;;1.73;;
58015;SDS011;43809;52.110;20.964;2023-07-20T13:58:12;1.50;;;1.23;;
58015;SDS011;43809;52.110;20.964;2023-07-20T14:00:12;1.80;;;1.20;;
58015;SDS011;43809;52.110;20.964;2023-07-20T14:02:13;7.68;;;1.63;;
58015;SDS011;43809;52.110;20.964;2023-07-20T14:04:14;2.35;;;1.40;;